sensor_id;sensor_type;location;lat;lon;timestamp;pressure;altitude;pressure_sealevel;temperature;humidity
28921;BME280;16035;53.594;9.952;2022-08-21T00:01:07;101572.31;;;17.17;58.47
28921;BME280;16035;53.594;9.952;2022-08-21T00:03:12;101578.63;;;17.18;58.66
28921;BME280;16035;53.594;9.952;2022-08-21T00:05:12;101575.06;;;17.17;58.70
28921;BME280;16035;53.594;9.952;2022-08-21T00:07:13;101571.81;;;17.15;58.72
28921;BME280;16035;53.594;9.952;2022-08-21T00:09:14;101570.16;;;17.14;58.89
28921;BME280;16035;53.594;9.952;2022-08-21T00:11:14;101565.25;;;17.11;58.83
28921;BME280;16035;53.594;9.952;2022-08-21T00:13:16;101563.88;;;17.09;58.95
28921;BME280;16035;53.594;9.952;2022-08-21T00:15:21;101556.75;;;17.08;58.98
28921;BME280;16035;53.594;9.952;2022-08-21T00:17:22;101558.38;;;17.09;58.90
28921;BME280;16035;53.594;9.952;2022-08-21T00:19:23;101558.97;;;17.06;59.13
28921;BME280;16035;53.594;9.952;2022-08-21T00:21:24;101561.72;;;17.06;59.05
28921;BME280;16035;53.594;9.952;2022-08-21T00:23:25;101558.97;;;17.06;59.31
28921;BME280;16035;53.594;9.952;2022-08-21T00:25:26;101555.66;;;17.04;59.25
28921;BME280;16035;53.594;9.952;2022-08-21T00:27:26;101547.13;;;17.05;59.32
28921;BME280;16035;53.594;9.952;2022-08-21T00:29:26;101545.50;;;17.04;59.05
28921;BME280;16035;53.594;9.952;2022-08-21T00:31:27;101550.22;;;16.99;59.29
28921;BME280;16035;53.594;9.952;2022-08-21T00:33:27;101548.31;;;16.94;59.35
28921;BME280;16035;53.594;9.952;2022-08-21T00:35:31;101549.44;;;16.93;59.46
28921;BME280;16035;53.594;9.952;2022-08-21T00:37:32;101542.28;;;16.92;59.58
28921;BME280;16035;53.594;9.952;2022-08-21T00:39:32;101545.59;;;16.89;59.50
28921;BME280;16035;53.594;9.952;2022-08-21T00:41:35;101544.50;;;16.90;59.60
28921;BME280;16035;53.594;9.952;2022-08-21T00:43:37;101542.56;;;16.90;59.72
28921;BME280;16035;53.594;9.952;2022-08-21T00:45:38;101544.50;;;16.90;59.53
28921;BME280;16035;53.594;9.952;2022-08-21T00:47:38;101539.00;;;16.90;59.77
28921;BME280;16035;53.594;9.952;2022-08-21T00:49:39;101540.38;;;16.87;59.72
28921;BME280;16035;53.594;9.952;2022-08-21T00:51:50;101535.47;;;16.84;60.10
28921;BME280;16035;53.594;9.952;2022-08-21T00:53:56;101542.59;;;16.85;59.89
28921;BME280;16035;53.594;9.952;2022-08-21T00:55:58;101535.47;;;16.84;59.98
28921;BME280;16035;53.594;9.952;2022-08-21T00:58:01;101539.34;;;16.83;59.90
28921;BME280;16035;53.594;9.952;2022-08-21T01:00:05;101541.25;;;16.83;59.91
28921;BME280;16035;53.594;9.952;2022-08-21T01:02:07;101537.16;;;16.80;60.49
28921;BME280;16035;53.594;9.952;2022-08-21T01:04:08;101546.19;;;16.81;59.87
28921;BME280;16035;53.594;9.952;2022-08-21T01:06:08;101537.16;;;16.80;59.92
28921;BME280;16035;53.594;9.952;2022-08-21T01:08:10;101543.19;;;16.77;60.01
28921;BME280;16035;53.594;9.952;2022-08-21T01:10:11;101545.94;;;16.77;60.18
28921;BME280;16035;53.594;9.952;2022-08-21T01:12:13;101544.31;;;16.76;60.19
28921;BME280;16035;53.594;9.952;2022-08-21T01:14:14;101536.63;;;16.73;60.25
28921;BME280;16035;53.594;9.952;2022-08-21T01:16:17;101544.31;;;16.71;60.29
28921;BME280;16035;53.594;9.952;2022-08-21T01:18:19;101544.31;;;16.71;60.37
28921;BME280;16035;53.594;9.952;2022-08-21T01:20:20;101544.31;;;16.71;60.43
28921;BME280;16035;53.594;9.952;2022-08-21T01:22:21;101536.88;;;16.72;60.46
28921;BME280;16035;53.594;9.952;2022-08-21T01:24:22;101542.38;;;16.72;60.41
28921;BME280;16035;53.594;9.952;2022-08-21T01:26:26;101550.63;;;16.72;60.66
28921;BME280;16035;53.594;9.952;2022-08-21T01:28:27;101543.50;;;16.71;60.45
28921;BME280;16035;53.594;9.952;2022-08-21T01:30:32;101542.94;;;16.68;60.47
28921;BME280;16035;53.594;9.952;2022-08-21T01:32:34;101541.31;;;16.67;60.54
28921;BME280;16035;53.594;9.952;2022-08-21T01:34:38;101547.09;;;16.66;60.60
28921;BME280;16035;53.594;9.952;2022-08-21T01:36:39;101550.66;;;16.66;60.76
28921;BME280;16035;53.594;9.952;2022-08-21T01:38:39;101549.00;;;16.65;60.59
28921;BME280;16035;53.594;9.952;2022-08-21T01:40:39;101549.56;;;16.62;60.70
28921;BME280;16035;53.594;9.952;2022-08-21T01:42:40;101547.94;;;16.61;60.85
28921;BME280;16035;53.594;9.952;2022-08-21T01:44:41;101552.59;;;16.61;60.90
28921;BME280;16035;53.594;9.952;2022-08-21T01:46:41;101543.00;;;16.58;61.04
28921;BME280;16035;53.594;9.952;2022-08-21T01:48:42;101545.19;;;16.56;60.85
28921;BME280;16035;53.594;9.952;2022-08-21T01:50:43;101544.38;;;16.56;61.11
28921;BME280;16035;53.594;9.952;2022-08-21T01:52:43;101538.66;;;16.52;61.13
28921;BME280;16035;53.594;9.952;2022-08-21T01:54:44;101541.09;;;16.54;61.22
28921;BME280;16035;53.594;9.952;2022-08-21T01:56:47;101542.22;;;16.53;61.25
28921;BME280;16035;53.594;9.952;2022-08-21T01:58:48;101543.88;;;16.49;61.37
28921;BME280;16035;53.594;9.952;2022-08-21T02:00:49;101538.63;;;16.47;61.46
28921;BME280;16035;53.594;9.952;2022-08-21T02:02:49;101535.91;;;16.47;61.44
28921;BME280;16035;53.594;9.952;2022-08-21T02:04:50;101541.69;;;16.46;61.67
28921;BME280;16035;53.594;9.952;2022-08-21T02:06:51;101540.88;;;16.45;61.65
28921;BME280;16035;53.594;9.952;2022-08-21T02:08:52;101542.78;;;16.45;61.57
28921;BME280;16035;53.594;9.952;2022-08-21T02:10:52;101545.53;;;16.45;61.74
28921;BME280;16035;53.594;9.952;2022-08-21T02:12:53;101540.88;;;16.45;61.84
28921;BME280;16035;53.594;9.952;2022-08-21T02:14:55;101528.78;;;16.46;61.77
28921;BME280;16035;53.594;9.952;2022-08-21T02:16:55;101530.19;;;16.43;61.83
28921;BME280;16035;53.594;9.952;2022-08-21T02:18:55;101534.84;;;16.43;61.76
28921;BME280;16035;53.594;9.952;2022-08-21T02:20:56;101533.44;;;16.46;61.97
28921;BME280;16035;53.594;9.952;2022-08-21T02:22:56;101537.28;;;16.45;61.77
28921;BME280;16035;53.594;9.952;2022-08-21T02:24:56;101538.63;;;16.47;61.97
28921;BME280;16035;53.594;9.952;2022-08-21T02:26:57;101530.69;;;16.46;61.95
28921;BME280;16035;53.594;9.952;2022-08-21T02:28:58;101532.63;;;16.45;62.07
28921;BME280;16035;53.594;9.952;2022-08-21T02:30:59;101530.69;;;16.46;62.00
28921;BME280;16035;53.594;9.952;2022-08-21T02:33:00;101531.00;;;16.44;62.15
28921;BME280;16035;53.594;9.952;2022-08-21T02:35:00;101528.00;;;16.40;62.20
28921;BME280;16035;53.594;9.952;2022-08-21T02:37:01;101532.38;;;16.41;62.34
28921;BME280;16035;53.594;9.952;2022-08-21T02:39:02;101534.84;;;16.43;62.22
28921;BME280;16035;53.594;9.952;2022-08-21T02:41:02;101531.25;;;16.42;62.21
28921;BME280;16035;53.594;9.952;2022-08-21T02:43:04;101532.91;;;16.38;62.26
28921;BME280;16035;53.594;9.952;2022-08-21T02:45:06;101532.38;;;16.36;62.32
28921;BME280;16035;53.594;9.952;2022-08-21T02:47:07;101533.50;;;16.35;62.35
28921;BME280;16035;53.594;9.952;2022-08-21T02:49:07;101534.88;;;16.33;62.53
28921;BME280;16035;53.594;9.952;2022-08-21T02:51:14;101528.84;;;16.31;62.78
28921;BME280;16035;53.594;9.952;2022-08-21T02:53:16;101529.41;;;16.28;62.69
28921;BME280;16035;53.594;9.952;2022-08-21T02:55:16;101517.91;;;16.26;62.74
28921;BME280;16035;53.594;9.952;2022-08-21T02:57:17;101529.13;;;16.24;62.81
28921;BME280;16035;53.594;9.952;2022-08-21T02:59:17;101520.66;;;16.26;62.85
28921;BME280;16035;53.594;9.952;2022-08-21T03:01:18;101526.69;;;16.23;62.87
28921;BME280;16035;53.594;9.952;2022-08-21T03:03:19;101520.38;;;16.22;62.91
28921;BME280;16035;53.594;9.952;2022-08-21T03:05:21;101518.75;;;16.21;63.02
28921;BME280;16035;53.594;9.952;2022-08-21T03:07:22;101522.59;;;16.15;62.90
28921;BME280;16035;53.594;9.952;2022-08-21T03:09:23;101521.50;;;16.11;63.01
28921;BME280;16035;53.594;9.952;2022-08-21T03:11:24;101528.38;;;16.08;62.87
28921;BME280;16035;53.594;9.952;2022-08-21T03:13:26;101517.16;;;16.05;63.14
28921;BME280;16035;53.594;9.952;2022-08-21T03:15:27;101513.59;;;16.04;63.23
28921;BME280;16035;53.594;9.952;2022-08-21T03:17:28;101513.84;;;16.03;63.39
28921;BME280;16035;53.594;9.952;2022-08-21T03:19:28;101509.22;;;16.03;63.59
28921;BME280;16035;53.594;9.952;2022-08-21T03:21:29;101519.63;;;16.01;63.53
28921;BME280;16035;53.594;9.952;2022-08-21T03:23:29;101516.06;;;16.01;63.43
28921;BME280;16035;53.594;9.952;2022-08-21T03:25:31;101510.28;;;16.02;63.59
28921;BME280;16035;53.594;9.952;2022-08-21T03:27:32;101514.97;;;15.97;63.65
28921;BME280;16035;53.594;9.952;2022-08-21T03:29:33;101521.00;;;15.93;63.77
28921;BME280;16035;53.594;9.952;2022-08-21T03:31:34;101513.06;;;15.92;63.46
28921;BME280;16035;53.594;9.952;2022-08-21T03:33:34;101516.09;;;15.90;63.55
28921;BME280;16035;53.594;9.952;2022-08-21T03:35:34;101515.28;;;15.90;63.69
28921;BME280;16035;53.594;9.952;2022-08-21T03:37:35;101515.28;;;15.90;63.64
28921;BME280;16035;53.594;9.952;2022-08-21T03:39:36;101510.34;;;15.87;63.69
28921;BME280;16035;53.594;9.952;2022-08-21T03:41:36;101512.53;;;15.85;64.01
28921;BME280;16035;53.594;9.952;2022-08-21T03:43:37;101505.41;;;15.84;64.00
28921;BME280;16035;53.594;9.952;2022-08-21T03:45:38;101511.72;;;15.79;63.99
28921;BME280;16035;53.594;9.952;2022-08-21T03:47:49;101514.47;;;15.79;64.09
28921;BME280;16035;53.594;9.952;2022-08-21T03:49:50;101515.56;;;15.78;64.06
28921;BME280;16035;53.594;9.952;2022-08-21T03:51:50;101508.97;;;15.79;64.31
28921;BME280;16035;53.594;9.952;2022-08-21T03:53:51;101512.28;;;15.81;64.04
28921;BME280;16035;53.594;9.952;2022-08-21T03:55:52;101510.63;;;15.80;64.10
28921;BME280;16035;53.594;9.952;2022-08-21T03:57:52;101509.56;;;15.76;64.08
28921;BME280;16035;53.594;9.952;2022-08-21T03:59:53;101511.44;;;15.76;64.03
28921;BME280;16035;53.594;9.952;2022-08-21T04:01:55;101513.13;;;15.77;64.20
28921;BME280;16035;53.594;9.952;2022-08-21T04:03:56;101515.03;;;15.76;64.33
28921;BME280;16035;53.594;9.952;2022-08-21T04:05:57;101519.94;;;15.74;64.31
28921;BME280;16035;53.594;9.952;2022-08-21T04:07:58;101515.59;;;15.73;64.30
28921;BME280;16035;53.594;9.952;2022-08-21T04:09:59;101517.75;;;15.71;64.12
28921;BME280;16035;53.594;9.952;2022-08-21T04:11:59;101519.97;;;15.69;64.38
28921;BME280;16035;53.594;9.952;2022-08-21T04:14:00;101515.59;;;15.68;64.34
28921;BME280;16035;53.594;9.952;2022-08-21T04:16:01;101519.69;;;15.65;64.79
28921;BME280;16035;53.594;9.952;2022-08-21T04:18:03;101525.47;;;15.64;64.63
28921;BME280;16035;53.594;9.952;2022-08-21T04:20:04;101517.25;;;15.64;64.48
28921;BME280;16035;53.594;9.952;2022-08-21T04:22:04;101521.31;;;15.66;64.56
28921;BME280;16035;53.594;9.952;2022-08-21T04:24:06;101517.50;;;15.68;64.54
28921;BME280;16035;53.594;9.952;2022-08-21T04:26:07;101524.63;;;15.69;64.77
28921;BME280;16035;53.594;9.952;2022-08-21T04:28:07;101511.47;;;15.71;65.01
28921;BME280;16035;53.594;9.952;2022-08-21T04:30:08;101515.88;;;15.72;64.57
28921;BME280;16035;53.594;9.952;2022-08-21T04:32:09;101518.84;;;15.75;64.65
28921;BME280;16035;53.594;9.952;2022-08-21T04:34:09;101522.16;;;15.77;64.93
28921;BME280;16035;53.594;9.952;2022-08-21T04:36:10;101524.31;;;15.80;64.79
28921;BME280;16035;53.594;9.952;2022-08-21T04:38:11;101522.44;;;15.81;64.67
28921;BME280;16035;53.594;9.952;2022-08-21T04:40:14;101522.41;;;15.86;64.75
28921;BME280;16035;53.594;9.952;2022-08-21T04:42:15;101521.84;;;15.89;65.07
28921;BME280;16035;53.594;9.952;2022-08-21T04:44:15;101528.69;;;15.91;64.98
28921;BME280;16035;53.594;9.952;2022-08-21T04:46:16;101531.97;;;15.93;65.10
28921;BME280;16035;53.594;9.952;2022-08-21T04:48:20;101525.13;;;15.96;64.69
28921;BME280;16035;53.594;9.952;2022-08-21T04:50:26;101527.56;;;15.98;64.97
28921;BME280;16035;53.594;9.952;2022-08-21T04:52:27;101529.25;;;15.99;64.95
28921;BME280;16035;53.594;9.952;2022-08-21T04:54:28;101534.97;;;16.02;65.01
28921;BME280;16035;53.594;9.952;2022-08-21T04:56:38;101541.25;;;16.03;65.32
28921;BME280;16035;53.594;9.952;2022-08-21T04:58:40;101537.16;;;16.05;64.99
28921;BME280;16035;53.594;9.952;2022-08-21T05:00:41;101537.72;;;16.07;65.23
28921;BME280;16035;53.594;9.952;2022-08-21T05:02:42;101536.31;;;16.10;65.10
28921;BME280;16035;53.594;9.952;2022-08-21T05:04:49;101531.94;;;16.14;65.31
28921;BME280;16035;53.594;9.952;2022-08-21T05:06:51;101539.31;;;16.18;65.26
28921;BME280;16035;53.594;9.952;2022-08-21T05:08:55;101540.69;;;16.21;65.04
28921;BME280;16035;53.594;9.952;2022-08-21T05:10:56;101542.31;;;16.22;65.21
28921;BME280;16035;53.594;9.952;2022-08-21T05:12:56;101539.28;;;16.24;65.19
28921;BME280;16035;53.594;9.952;2022-08-21T05:14:57;101541.19;;;16.28;65.16
28921;BME280;16035;53.594;9.952;2022-08-21T05:16:57;101539.28;;;16.29;64.98
28921;BME280;16035;53.594;9.952;2022-08-21T05:18:58;101535.97;;;16.32;65.16
28921;BME280;16035;53.594;9.952;2022-08-21T05:20:59;101539.81;;;16.36;65.25
28921;BME280;16035;53.594;9.952;2022-08-21T05:23:00;101539.50;;;16.42;65.19
28921;BME280;16035;53.594;9.952;2022-08-21T05:25:02;101538.63;;;16.47;65.23
28921;BME280;16035;53.594;9.952;2022-08-21T05:27:02;101539.47;;;16.53;65.24
28921;BME280;16035;53.594;9.952;2022-08-21T05:29:03;101539.13;;;16.59;65.27
28921;BME280;16035;53.594;9.952;2022-08-21T05:31:04;101539.41;;;16.63;65.23
28921;BME280;16035;53.594;9.952;2022-08-21T05:33:05;101539.94;;;16.70;65.00
28921;BME280;16035;53.594;9.952;2022-08-21T05:35:07;101539.38;;;16.73;65.28
28921;BME280;16035;53.594;9.952;2022-08-21T05:37:10;101545.41;;;16.75;64.98
28921;BME280;16035;53.594;9.952;2022-08-21T05:39:11;101540.72;;;16.81;65.06
28921;BME280;16035;53.594;9.952;2022-08-21T05:41:11;101539.34;;;16.83;65.09
28921;BME280;16035;53.594;9.952;2022-08-21T05:43:12;101541.22;;;16.88;65.07
28921;BME280;16035;53.594;9.952;2022-08-21T05:45:13;101539.53;;;16.92;65.12
28921;BME280;16035;53.594;9.952;2022-08-21T05:47:13;101537.03;;;16.96;64.77
28921;BME280;16035;53.594;9.952;2022-08-21T05:49:13;101534.56;;;16.99;64.97
28921;BME280;16035;53.594;9.952;2022-08-21T05:51:14;101539.50;;;17.02;65.00
28921;BME280;16035;53.594;9.952;2022-08-21T05:53:16;101539.44;;;17.07;65.18
28921;BME280;16035;53.594;9.952;2022-08-21T05:55:17;101535.53;;;17.13;65.00
28921;BME280;16035;53.594;9.952;2022-08-21T05:57:17;101536.34;;;17.19;65.01
28921;BME280;16035;53.594;9.952;2022-08-21T05:59:18;101544.81;;;17.23;65.03
28921;BME280;16035;53.594;9.952;2022-08-21T06:01:18;101544.25;;;17.26;65.17
28921;BME280;16035;53.594;9.952;2022-08-21T06:03:25;101536.78;;;17.31;65.33
28921;BME280;16035;53.594;9.952;2022-08-21T06:05:26;101546.59;;;17.42;65.04
28921;BME280;16035;53.594;9.952;2022-08-21T06:07:26;101542.69;;;17.49;65.02
28921;BME280;16035;53.594;9.952;2022-08-21T06:09:27;101541.00;;;17.53;64.92
28921;BME280;16035;53.594;9.952;2022-08-21T06:11:27;101549.81;;;17.55;65.09
28921;BME280;16035;53.594;9.952;2022-08-21T06:13:28;101539.56;;;17.60;65.03
28921;BME280;16035;53.594;9.952;2022-08-21T06:15:28;101541.16;;;17.66;65.05
28921;BME280;16035;53.594;9.952;2022-08-21T06:17:29;101540.28;;;17.76;65.08
28921;BME280;16035;53.594;9.952;2022-08-21T06:19:29;101538.53;;;17.85;65.09
28921;BME280;16035;53.594;9.952;2022-08-21T06:21:30;101531.59;;;17.93;65.21
28921;BME280;16035;53.594;9.952;2022-08-21T06:23:31;101533.69;;;18.01;65.12
28921;BME280;16035;53.594;9.952;2022-08-21T06:25:31;101536.63;;;18.10;65.02
28921;BME280;16035;53.594;9.952;2022-08-21T06:27:32;101541.50;;;18.18;64.93
28921;BME280;16035;53.594;9.952;2022-08-21T06:29:32;101537.25;;;18.26;64.84
28921;BME280;16035;53.594;9.952;2022-08-21T06:31:32;101534.47;;;18.31;64.55
28921;BME280;16035;53.594;9.952;2022-08-21T06:33:33;101534.97;;;18.33;64.50
28921;BME280;16035;53.594;9.952;2022-08-21T06:35:34;101536.53;;;18.39;64.18
28921;BME280;16035;53.594;9.952;2022-08-21T06:37:35;101536.50;;;18.44;63.73
28921;BME280;16035;53.594;9.952;2022-08-21T06:39:35;101537.03;;;18.46;63.77
28921;BME280;16035;53.594;9.952;2022-08-21T06:41:36;101540.06;;;18.44;63.50
28921;BME280;16035;53.594;9.952;2022-08-21T06:43:36;101539.84;;;18.41;63.57
28921;BME280;16035;53.594;9.952;2022-08-21T06:45:36;101536.78;;;18.42;63.36
28921;BME280;16035;53.594;9.952;2022-08-21T06:47:37;101541.34;;;18.52;63.24
28921;BME280;16035;53.594;9.952;2022-08-21T06:49:37;101539.63;;;18.56;62.99
28921;BME280;16035;53.594;9.952;2022-08-21T06:51:38;101536.53;;;18.63;62.80
28921;BME280;16035;53.594;9.952;2022-08-21T06:53:39;101539.78;;;18.65;62.71
28921;BME280;16035;53.594;9.952;2022-08-21T06:55:39;101535.38;;;18.69;62.52
28921;BME280;16035;53.594;9.952;2022-08-21T06:57:40;101534.19;;;18.75;62.42
28921;BME280;16035;53.594;9.952;2022-08-21T06:59:40;101524.75;;;18.81;62.65
28921;BME280;16035;53.594;9.952;2022-08-21T07:01:40;101528.78;;;18.89;62.09
28921;BME280;16035;53.594;9.952;2022-08-21T07:03:42;101518.19;;;18.96;62.27
28921;BME280;16035;53.594;9.952;2022-08-21T07:05:43;101521.06;;;19.05;62.09
28921;BME280;16035;53.594;9.952;2022-08-21T07:07:44;101519.91;;;19.11;61.66
28921;BME280;16035;53.594;9.952;2022-08-21T07:09:45;101511.75;;;19.19;61.69
28921;BME280;16035;53.594;9.952;2022-08-21T07:11:49;101508.31;;;19.28;61.37
28921;BME280;16035;53.594;9.952;2022-08-21T07:13:51;101509.06;;;19.33;61.14
28921;BME280;16035;53.594;9.952;2022-08-21T07:15:53;101507.03;;;19.39;60.60
28921;BME280;16035;53.594;9.952;2022-08-21T07:17:53;101506.94;;;19.44;60.71
28921;BME280;16035;53.594;9.952;2022-08-21T07:19:53;101504.31;;;19.53;60.72
28921;BME280;16035;53.594;9.952;2022-08-21T07:21:57;101490.69;;;19.61;60.53
28921;BME280;16035;53.594;9.952;2022-08-21T07:23:58;101494.38;;;19.71;59.78
28921;BME280;16035;53.594;9.952;2022-08-21T07:25:58;101496.31;;;19.70;59.88
28921;BME280;16035;53.594;9.952;2022-08-21T07:28:02;101495.91;;;19.77;59.64
28921;BME280;16035;53.594;9.952;2022-08-21T07:30:04;101488.88;;;19.84;59.67
28921;BME280;16035;53.594;9.952;2022-08-21T07:32:04;101488.97;;;19.93;59.49
28921;BME280;16035;53.594;9.952;2022-08-21T07:34:05;101485.78;;;20.00;59.19
28921;BME280;16035;53.594;9.952;2022-08-21T07:36:06;101495.84;;;20.09;58.65
28921;BME280;16035;53.594;9.952;2022-08-21T07:38:06;101490.22;;;20.14;58.46
28921;BME280;16035;53.594;9.952;2022-08-21T07:40:07;101482.84;;;20.24;58.68
28921;BME280;16035;53.594;9.952;2022-08-21T07:42:08;101482.63;;;20.34;58.29
28921;BME280;16035;53.594;9.952;2022-08-21T07:44:10;101486.28;;;20.43;57.98
28921;BME280;16035;53.594;9.952;2022-08-21T07:46:10;101482.09;;;20.45;57.66
28921;BME280;16035;53.594;9.952;2022-08-21T07:48:11;101475.75;;;20.59;57.80
28921;BME280;16035;53.594;9.952;2022-08-21T07:50:13;101475.06;;;20.76;57.56
28921;BME280;16035;53.594;9.952;2022-08-21T07:52:13;101480.56;;;20.89;57.38
28921;BME280;16035;53.594;9.952;2022-08-21T07:54:14;101476.41;;;21.01;57.00
28921;BME280;16035;53.594;9.952;2022-08-21T07:56:14;101478.84;;;21.25;56.91
28921;BME280;16035;53.594;9.952;2022-08-21T07:58:14;101479.91;;;21.60;56.14
28921;BME280;16035;53.594;9.952;2022-08-21T08:00:18;101475.09;;;21.74;55.56
28921;BME280;16035;53.594;9.952;2022-08-21T08:02:24;101480.94;;;21.73;55.26
28921;BME280;16035;53.594;9.952;2022-08-21T08:04:25;101480.03;;;21.86;55.33
28921;BME280;16035;53.594;9.952;2022-08-21T08:06:25;101468.84;;;22.00;54.78
28921;BME280;16035;53.594;9.952;2022-08-21T08:08:26;101473.25;;;22.58;54.92
28921;BME280;16035;53.594;9.952;2022-08-21T08:10:26;101471.41;;;23.49;53.91
28921;BME280;16035;53.594;9.952;2022-08-21T08:12:27;101469.41;;;24.34;52.59
28921;BME280;16035;53.594;9.952;2022-08-21T08:14:29;101467.22;;;25.03;50.96
28921;BME280;16035;53.594;9.952;2022-08-21T08:16:29;101469.69;;;25.37;48.91
28921;BME280;16035;53.594;9.952;2022-08-21T08:18:30;101466.72;;;25.67;48.93
28921;BME280;16035;53.594;9.952;2022-08-21T08:20:30;101459.00;;;25.97;48.44
28921;BME280;16035;53.594;9.952;2022-08-21T08:22:31;101465.72;;;26.20;47.60
28921;BME280;16035;53.594;9.952;2022-08-21T08:24:31;101468.25;;;26.50;47.66
28921;BME280;16035;53.594;9.952;2022-08-21T08:26:32;101465.66;;;26.69;47.31
28921;BME280;16035;53.594;9.952;2022-08-21T08:28:32;101462.38;;;26.80;46.49
28921;BME280;16035;53.594;9.952;2022-08-21T08:30:33;101460.69;;;26.91;47.27
28921;BME280;16035;53.594;9.952;2022-08-21T08:32:33;101465.13;;;27.20;46.68
28921;BME280;16035;53.594;9.952;2022-08-21T08:34:35;101463.88;;;27.05;46.14
28921;BME280;16035;53.594;9.952;2022-08-21T08:36:36;101461.22;;;27.53;45.81
28921;BME280;16035;53.594;9.952;2022-08-21T08:38:37;101466.81;;;27.84;45.23
28921;BME280;16035;53.594;9.952;2022-08-21T08:42:56;101469.09;;;27.79;43.36
28921;BME280;16035;53.594;9.952;2022-08-21T08:45:07;101464.03;;;27.68;43.34
28921;BME280;16035;53.594;9.952;2022-08-21T08:47:13;101456.91;;;27.55;43.83
28921;BME280;16035;53.594;9.952;2022-08-21T08:49:24;101460.06;;;28.01;43.41
28921;BME280;16035;53.594;9.952;2022-08-21T08:51:44;101456.69;;;28.27;43.23
28921;BME280;16035;53.594;9.952;2022-08-21T08:53:52;101447.13;;;28.63;42.81
28921;BME280;16035;53.594;9.952;2022-08-21T08:55:55;101446.00;;;28.87;42.93
28921;BME280;16035;53.594;9.952;2022-08-21T08:57:56;101448.69;;;29.00;42.08
28921;BME280;16035;53.594;9.952;2022-08-21T09:00:03;101446.38;;;29.05;41.79
28921;BME280;16035;53.594;9.952;2022-08-21T09:02:04;101452.34;;;29.04;41.04
28921;BME280;16035;53.594;9.952;2022-08-21T09:04:06;101449.41;;;29.16;41.51
28921;BME280;16035;53.594;9.952;2022-08-21T09:06:43;101449.72;;;29.34;40.69
28921;BME280;16035;53.594;9.952;2022-08-21T09:11:02;101448.72;;;29.45;40.09
28921;BME280;16035;53.594;9.952;2022-08-21T09:15:49;101451.97;;;29.48;39.80
28921;BME280;16035;53.594;9.952;2022-08-21T09:20:29;101437.25;;;29.74;38.59
28921;BME280;16035;53.594;9.952;2022-08-21T09:22:48;101431.34;;;30.09;38.75
28921;BME280;16035;53.594;9.952;2022-08-21T09:27:08;101437.81;;;30.09;37.57
28921;BME280;16035;53.594;9.952;2022-08-21T09:29:10;101429.28;;;30.29;38.58
28921;BME280;16035;53.594;9.952;2022-08-21T09:33:16;101427.66;;;30.58;37.28
28921;BME280;16035;53.594;9.952;2022-08-21T09:35:18;101431.56;;;30.19;36.66
28921;BME280;16035;53.594;9.952;2022-08-21T09:37:20;101426.03;;;30.57;37.44
28921;BME280;16035;53.594;9.952;2022-08-21T09:39:28;101417.50;;;30.46;36.59
28921;BME280;16035;53.594;9.952;2022-08-21T09:41:32;101426.38;;;30.82;36.59
28921;BME280;16035;53.594;9.952;2022-08-21T09:43:34;101426.09;;;30.94;36.60
28921;BME280;16035;53.594;9.952;2022-08-21T09:45:34;101425.16;;;30.79;35.79
28921;BME280;16035;53.594;9.952;2022-08-21T09:47:35;101422.88;;;31.29;36.34
28921;BME280;16035;53.594;9.952;2022-08-21T09:49:38;101427.84;;;31.06;34.65
28921;BME280;16035;53.594;9.952;2022-08-21T09:51:50;101430.94;;;31.31;35.12
28921;BME280;16035;53.594;9.952;2022-08-21T09:53:58;101429.53;;;31.55;35.24
28921;BME280;16035;53.594;9.952;2022-08-21T09:56:03;101422.50;;;31.79;34.96
28921;BME280;16035;53.594;9.952;2022-08-21T09:58:31;101428.63;;;31.88;33.90
28921;BME280;16035;53.594;9.952;2022-08-21T10:00:34;101437.19;;;32.09;34.63
28921;BME280;16035;53.594;9.952;2022-08-21T10:02:35;101428.59;;;31.36;33.89
28921;BME280;16035;53.594;9.952;2022-08-21T10:04:35;101429.94;;;30.18;32.98
28921;BME280;16035;53.594;9.952;2022-08-21T10:06:36;101431.56;;;30.50;35.54
28921;BME280;16035;53.594;9.952;2022-08-21T10:08:38;101431.50;;;30.73;34.02
28921;BME280;16035;53.594;9.952;2022-08-21T10:10:38;101427.91;;;31.50;35.24
28921;BME280;16035;53.594;9.952;2022-08-21T10:15:16;101422.44;;;32.19;32.89
28921;BME280;16035;53.594;9.952;2022-08-21T10:17:37;101423.34;;;32.38;32.29
28921;BME280;16035;53.594;9.952;2022-08-21T10:20:04;101415.44;;;32.72;32.37
28921;BME280;16035;53.594;9.952;2022-08-21T10:23:06;101425.47;;;32.66;31.29
28921;BME280;16035;53.594;9.952;2022-08-21T10:27:30;101423.94;;;31.55;32.25
28921;BME280;16035;53.594;9.952;2022-08-21T10:32:00;101421.69;;;32.33;31.17
28921;BME280;16035;53.594;9.952;2022-08-21T10:34:13;101429.66;;;32.28;30.94
28921;BME280;16035;53.594;9.952;2022-08-21T10:36:45;101428.38;;;32.07;30.39
28921;BME280;16035;53.594;9.952;2022-08-21T10:41:22;101428.50;;;32.36;31.50
28921;BME280;16035;53.594;9.952;2022-08-21T10:46:00;101418.78;;;31.64;31.38
28921;BME280;16035;53.594;9.952;2022-08-21T10:48:08;101416.19;;;31.41;32.62
28921;BME280;16035;53.594;9.952;2022-08-21T10:50:23;101424.81;;;31.21;32.38
28921;BME280;16035;53.594;9.952;2022-08-21T10:54:52;101423.72;;;30.32;31.95
28921;BME280;16035;53.594;9.952;2022-08-21T10:57:02;101433.34;;;30.08;32.24
28921;BME280;16035;53.594;9.952;2022-08-21T10:59:28;101429.59;;;29.70;31.87
28921;BME280;16035;53.594;9.952;2022-08-21T11:01:42;101441.56;;;29.48;32.60
28921;BME280;16035;53.594;9.952;2022-08-21T11:03:51;101429.88;;;29.42;33.57
28921;BME280;16035;53.594;9.952;2022-08-21T11:05:55;101432.47;;;29.32;34.09
28921;BME280;16035;53.594;9.952;2022-08-21T11:08:07;101433.75;;;29.15;33.10
28921;BME280;16035;53.594;9.952;2022-08-21T11:12:43;101426.88;;;28.70;33.81